Unionville, Nevada
Current Conditions -  °F | °C
As of 8:56 PM on Saturday 20 Dec 2014 (Local Time) from KWMC Reporting Station
Overcast Overcast  
Wind Chill: 33°   Ceiling: 3300
Heat Index: 41°   Visibility: 10mi
Dew Point: 38°   Wind: 16mph
Humidity: 89%   Direction: 170°S
Pressure: 30.09"   Gusts: NA
Location:  40.601°N, 117.984°W
Report Text: KWMC 210456Z AUTO 17014KT 10SM OVC033 05/03 A3009 RMK AO2 RAE50 SLP189 P0001 T00500033
Loading
Personal Weather Stations






























Interactive Weather Map New forecast layout! Learn more

10-Day Weather Forecast

Advertisements
Track Severe Weather on mobile